createdAt,value
2019-04-03T00:00:38.679Z,10.73
2019-04-03T00:01:38.658Z,10.72
2019-04-03T00:02:38.660Z,10.78
2019-04-03T00:03:38.777Z,10.82
2019-04-03T00:04:38.629Z,10.75
2019-04-03T00:05:38.714Z,10.68
2019-04-03T00:06:38.603Z,10.79
2019-04-03T00:07:38.602Z,10.68
2019-04-03T00:08:38.613Z,10.61
2019-04-03T00:09:38.583Z,10.58
2019-04-03T00:10:38.568Z,10.62
2019-04-03T00:11:39.757Z,10.58
2019-04-03T00:12:40.468Z,10.60
2019-04-03T00:13:41.582Z,10.64
2019-04-03T00:14:38.528Z,10.49
2019-04-03T00:15:38.506Z,10.52
2019-04-03T00:16:38.495Z,10.42
2019-04-03T00:17:38.481Z,10.61
2019-04-03T00:18:38.504Z,10.54
2019-04-03T00:20:39.620Z,10.48
2019-04-03T00:21:38.436Z,10.46
2019-04-03T00:22:38.437Z,10.61
2019-04-03T00:23:38.467Z,10.61
2019-04-03T00:24:38.398Z,10.62
2019-04-03T00:25:38.478Z,10.52
2019-04-03T00:26:38.383Z,10.55
2019-04-03T00:27:38.373Z,10.68
2019-04-03T00:28:38.384Z,10.60
2019-04-03T00:29:38.371Z,10.45
2019-04-03T00:30:38.351Z,10.52
2019-04-03T00:31:38.326Z,10.52
2019-04-03T00:32:38.320Z,10.43
2019-04-03T00:33:38.329Z,10.36
2019-04-03T00:34:38.425Z,10.57
2019-04-03T00:35:38.283Z,10.48
2019-04-03T00:36:38.267Z,10.58
2019-04-03T00:37:38.278Z,10.49
2019-04-03T00:39:39.352Z,10.57
2019-04-03T00:40:38.349Z,10.52
2019-04-03T00:41:38.962Z,10.34
2019-04-03T00:42:38.339Z,10.55
2019-04-03T00:43:38.330Z,10.48
2019-04-03T00:44:38.350Z,10.49
2019-04-03T00:45:38.171Z,10.41
2019-04-03T00:46:38.156Z,10.43
2019-04-03T00:47:38.144Z,10.34
2019-04-03T00:48:38.153Z,10.43
2019-04-03T00:49:38.147Z,10.39
2019-04-03T00:50:38.111Z,10.46
2019-04-03T00:51:38.197Z,10.35
2019-04-03T00:52:38.096Z,10.27
2019-04-03T00:53:38.078Z,10.45
2019-04-03T00:54:38.094Z,10.38
2019-04-03T00:55:38.058Z,10.38
2019-04-03T00:56:38.054Z,10.46
2019-04-03T00:57:38.081Z,10.34
2019-04-03T00:58:38.023Z,10.45
2019-04-03T00:59:38.037Z,10.34
2019-04-03T01:00:38.107Z,10.45
2019-04-03T01:01:37.986Z,10.36
2019-04-03T01:02:37.998Z,10.30
2019-04-03T01:03:38.048Z,10.38
2019-04-03T01:04:38.003Z,10.27
2019-04-03T01:05:38.143Z,10.28
2019-04-03T01:06:37.964Z,10.34
2019-04-03T01:07:37.922Z,10.23
2019-04-03T01:08:37.916Z,10.39
2019-04-03T01:09:37.908Z,10.43
2019-04-03T01:10:38.126Z,10.24
2019-04-03T01:11:37.894Z,10.31
2019-04-03T01:12:37.906Z,10.36
2019-04-03T01:13:37.895Z,10.31
2019-04-03T01:14:37.913Z,10.27
2019-04-03T01:15:37.861Z,10.26
2019-04-03T01:16:37.933Z,10.39
2019-04-03T01:17:37.825Z,10.35
2019-04-03T01:18:37.805Z,10.26
2019-04-03T01:19:37.800Z,10.48
2019-04-03T01:20:37.885Z,10.42
2019-04-03T01:21:37.770Z,10.41
2019-04-03T01:22:37.898Z,10.43
2019-04-03T01:23:38.196Z,10.48
2019-04-03T01:24:38.796Z,10.54
2019-04-03T01:25:39.450Z,10.55
2019-04-03T01:26:40.203Z,10.49
2019-04-03T01:27:37.700Z,10.42
2019-04-03T01:28:37.697Z,10.49
2019-04-03T01:29:37.678Z,10.49
2019-04-03T01:30:37.702Z,10.52
2019-04-03T01:31:37.656Z,10.48
2019-04-03T01:32:37.651Z,10.46
2019-04-03T01:33:37.801Z,10.54
2019-04-03T01:34:37.622Z,10.52
2019-04-03T01:35:37.609Z,10.45
2019-04-03T01:36:37.633Z,10.38
2019-04-03T01:37:37.677Z,10.41
2019-04-03T01:38:37.580Z,10.48
2019-04-03T01:39:37.563Z,10.36
2019-04-03T01:40:37.552Z,10.45
2019-04-03T01:41:37.573Z,10.48
2019-04-03T01:42:37.539Z,10.54
2019-04-03T01:43:37.519Z,10.54
2019-04-03T01:44:37.509Z,10.48
2019-04-03T01:45:37.495Z,10.43
2019-04-03T01:46:37.512Z,10.41
2019-04-03T01:47:37.600Z,10.41
2019-04-03T01:48:37.471Z,10.31
2019-04-03T01:49:37.460Z,10.38
2019-04-03T01:50:37.443Z,10.35
2019-04-03T01:51:37.462Z,10.31
2019-04-03T01:52:37.420Z,10.35
2019-04-03T01:53:37.425Z,10.34
2019-04-03T01:54:37.400Z,10.31
2019-04-03T01:55:37.399Z,10.26
2019-04-03T01:56:37.408Z,10.24
2019-04-03T01:57:37.464Z,10.28
2019-04-03T01:58:37.350Z,10.20
2019-04-03T01:59:37.951Z,10.23
2019-04-03T02:00:37.915Z,10.14
2019-04-03T02:01:38.847Z,10.26
2019-04-03T02:02:38.703Z,10.24
2019-04-03T02:03:37.307Z,10.20
2019-04-03T02:04:37.282Z,10.24
2019-04-03T02:05:37.270Z,10.17
2019-04-03T02:06:37.291Z,10.14
2019-04-03T02:07:37.311Z,10.18
2019-04-03T02:08:37.250Z,10.12
2019-04-03T02:09:37.226Z,10.14
2019-04-03T02:10:37.225Z,10.02
2019-04-03T02:11:37.235Z,10.17
2019-04-03T02:12:37.221Z,10.06
2019-04-03T02:13:37.183Z,10.08
2019-04-03T02:14:37.181Z,10.16
2019-04-03T02:15:37.245Z,10.03
2019-04-03T02:16:37.284Z,10.20
2019-04-03T02:17:37.171Z,10.20
2019-04-03T02:18:37.127Z,10.08
2019-04-03T02:19:37.118Z,10.10
2019-04-03T02:20:37.102Z,10.05
2019-04-03T02:21:37.093Z,10.06
2019-04-03T02:22:37.108Z,10.08
2019-04-03T02:23:37.077Z,10.18
2019-04-03T02:24:37.064Z,10.08
2019-04-03T02:25:37.050Z,10.09
2019-04-03T02:26:37.055Z,10.03
2019-04-03T02:27:37.069Z,10.02
2019-04-03T02:28:37.017Z,10.06
2019-04-03T02:29:39.279Z,10.16
2019-04-03T02:30:37.006Z,9.96
2019-04-03T02:31:36.993Z,9.99
2019-04-03T02:32:37.005Z,10.01
2019-04-03T02:33:37.217Z,10.03
2019-04-03T02:34:37.047Z,9.98
2019-04-03T02:35:39.606Z,9.91
2019-04-03T02:36:37.046Z,10.01
2019-04-03T02:37:37.171Z,9.84
2019-04-03T02:38:36.902Z,9.94
2019-04-03T02:39:36.896Z,9.77
2019-04-03T02:40:36.989Z,9.98
2019-04-03T02:41:37.518Z,9.88
2019-04-03T02:42:40.249Z,9.90
2019-04-03T02:43:36.879Z,9.63
2019-04-03T02:44:37.115Z,9.75
2019-04-03T02:45:37.202Z,9.77
2019-04-03T02:46:36.816Z,9.75
2019-04-03T02:47:36.851Z,9.73
2019-04-03T02:48:38.300Z,9.59
2019-04-03T02:49:36.782Z,9.65
2019-04-03T02:50:36.769Z,9.55
2019-04-03T02:51:36.762Z,9.44
2019-04-03T02:52:36.747Z,9.34
2019-04-03T02:53:36.761Z,9.30
2019-04-03T02:54:36.982Z,9.19
2019-04-03T02:55:39.158Z,9.22
2019-04-03T02:56:36.704Z,9.33
2019-04-03T02:57:36.697Z,9.33
2019-04-03T02:58:36.810Z,9.32
2019-04-03T02:59:36.710Z,9.34
2019-04-03T03:00:36.814Z,9.22
2019-04-03T03:01:39.539Z,9.16
2019-04-03T03:02:36.638Z,9.24
2019-04-03T03:03:36.707Z,9.32
2019-04-03T03:04:36.616Z,9.19
2019-04-03T03:05:36.643Z,9.16
2019-04-03T03:06:36.744Z,9.16
2019-04-03T03:07:37.402Z,9.14
2019-04-03T03:08:40.355Z,8.99
2019-04-03T03:09:37.563Z,9.04
2019-04-03T03:10:36.548Z,9.08
2019-04-03T03:11:36.536Z,8.99
2019-04-03T03:12:36.582Z,9.04
2019-04-03T03:13:36.681Z,9.08
2019-04-03T03:14:39.381Z,9.03
2019-04-03T03:15:36.805Z,8.98
2019-04-03T03:16:36.573Z,9.11
2019-04-03T03:17:36.468Z,9.12
2019-04-03T03:18:36.762Z,9.09
2019-04-03T03:19:36.449Z,9.04
2019-04-03T03:20:38.520Z,9.04
2019-04-03T03:21:36.428Z,9.14
2019-04-03T03:22:36.614Z,9.09
2019-04-03T03:23:36.406Z,9.01
2019-04-03T03:24:36.440Z,9.04
2019-04-03T03:25:36.391Z,9.03
2019-04-03T03:26:37.716Z,8.88
2019-04-03T03:27:40.880Z,8.93
2019-04-03T03:28:37.366Z,9.03
2019-04-03T03:29:36.394Z,8.98
2019-04-03T03:30:45.188Z,8.95
2019-04-03T03:32:03.158Z,8.92
2019-04-03T03:32:37.779Z,8.92
2019-04-03T03:33:40.146Z,8.98
2019-04-03T03:34:50.905Z,8.93
2019-04-03T03:35:44.063Z,9.09
2019-04-03T03:36:37.958Z,8.90
2019-04-03T03:37:36.392Z,9.04
2019-04-03T03:38:39.364Z,8.99
2019-04-03T03:39:36.267Z,8.92
2019-04-03T03:40:36.225Z,9.04
2019-04-03T03:41:36.236Z,8.85
2019-04-03T03:42:36.195Z,8.90
2019-04-03T03:43:38.254Z,8.93
2019-04-03T03:44:36.180Z,8.96
2019-04-03T03:45:36.187Z,8.92
2019-04-03T03:46:36.333Z,8.90
2019-04-03T03:47:36.638Z,8.92
2019-04-03T03:48:36.390Z,8.95
2019-04-03T03:49:36.118Z,8.89
2019-04-03T03:50:36.143Z,8.90
2019-04-03T03:51:36.104Z,8.77
2019-04-03T03:52:37.288Z,8.81
2019-04-03T03:53:36.071Z,8.62
2019-04-03T03:54:36.059Z,8.83
2019-04-03T03:55:36.087Z,8.81
2019-04-03T03:56:36.046Z,8.86
2019-04-03T03:57:39.156Z,8.78
2019-04-03T03:58:36.018Z,8.71
2019-04-03T03:59:36.094Z,8.70
2019-04-03T04:00:36.024Z,8.70
2019-04-03T04:01:36.142Z,8.71
2019-04-03T04:02:36.722Z,8.74
2019-04-03T04:03:35.990Z,8.83
2019-04-03T04:04:36.351Z,8.81
2019-04-03T04:05:36.128Z,8.77
2019-04-03T04:06:36.732Z,8.71
2019-04-03T04:07:37.505Z,8.75
2019-04-03T04:08:35.913Z,8.67
2019-04-03T04:09:35.913Z,8.67
2019-04-03T04:10:37.031Z,8.81
2019-04-03T04:11:35.904Z,8.70
2019-04-03T04:12:39.781Z,8.65
2019-04-03T04:13:36.898Z,8.65
2019-04-03T04:14:36.035Z,8.78
2019-04-03T04:15:35.857Z,8.68
2019-04-03T04:16:37.233Z,8.68
2019-04-03T04:17:35.920Z,8.68
2019-04-03T04:18:36.038Z,8.81
2019-04-03T04:19:35.798Z,8.75
2019-04-03T04:20:38.129Z,8.78
2019-04-03T04:21:35.844Z,8.62
2019-04-03T04:22:35.783Z,8.81
2019-04-03T04:23:35.742Z,8.72
2019-04-03T04:24:35.830Z,8.74
2019-04-03T04:25:35.771Z,8.88
2019-04-03T04:26:35.734Z,8.74
2019-04-03T04:27:38.148Z,8.80
2019-04-03T04:28:35.684Z,8.81
2019-04-03T04:29:35.686Z,8.83
2019-04-03T04:30:35.777Z,8.83
2019-04-03T04:31:35.721Z,8.83
2019-04-03T04:32:35.640Z,8.77
2019-04-03T04:33:35.652Z,8.74
2019-04-03T04:34:35.857Z,8.72
2019-04-03T04:35:35.608Z,8.72
2019-04-03T04:36:35.631Z,8.67
2019-04-03T04:37:35.653Z,8.70
2019-04-03T04:38:35.578Z,8.77
2019-04-03T04:39:35.565Z,8.68
2019-04-03T04:40:35.565Z,8.65
2019-04-03T04:41:35.714Z,8.67
2019-04-03T04:42:35.531Z,8.60
2019-04-03T04:43:35.517Z,8.68
2019-04-03T04:44:35.512Z,8.62
2019-04-03T04:45:35.557Z,8.71
2019-04-03T04:46:35.522Z,8.72
2019-04-03T04:47:35.758Z,8.77
2019-04-03T04:48:35.464Z,8.65
2019-04-03T04:49:35.577Z,8.71
2019-04-03T04:50:35.448Z,8.74
2019-04-03T04:51:35.436Z,8.81
2019-04-03T04:52:35.457Z,8.83
2019-04-03T04:53:35.411Z,8.67
2019-04-03T04:54:35.396Z,8.85
2019-04-03T04:55:35.994Z,8.78
2019-04-03T04:56:35.804Z,8.81
2019-04-03T04:57:35.384Z,8.86
2019-04-03T04:58:35.380Z,8.90
2019-04-03T04:59:36.679Z,8.89
2019-04-03T05:00:35.329Z,8.96
2019-04-03T05:01:35.328Z,8.90
2019-04-03T05:02:35.333Z,8.92
2019-04-03T05:03:35.330Z,9.03
2019-04-03T05:04:35.287Z,8.93
2019-04-03T05:05:35.287Z,9.06
2019-04-03T05:06:35.360Z,9.01
2019-04-03T05:07:35.348Z,8.95
2019-04-03T05:08:35.243Z,9.08
2019-04-03T05:09:35.542Z,8.99
2019-04-03T05:10:36.928Z,8.90
2019-04-03T05:11:35.226Z,8.95
2019-04-03T05:12:35.469Z,8.90
2019-04-03T05:13:35.223Z,8.95
2019-04-03T05:14:35.387Z,8.80
2019-04-03T05:15:35.226Z,8.90
2019-04-03T05:16:35.154Z,8.83
2019-04-03T05:17:35.142Z,8.90
2019-04-03T05:18:35.384Z,8.96
2019-04-03T05:19:35.119Z,8.83
2019-04-03T05:20:35.143Z,8.88
2019-04-03T05:21:35.099Z,8.81
2019-04-03T05:22:35.094Z,8.88
2019-04-03T05:23:35.108Z,8.83
2019-04-03T05:24:35.115Z,8.81
2019-04-03T05:25:35.061Z,8.72
2019-04-03T05:26:35.145Z,8.55
2019-04-03T05:27:35.338Z,8.65
2019-04-03T05:28:35.052Z,8.74
2019-04-03T05:29:35.396Z,8.68
2019-04-03T05:30:37.539Z,8.62
2019-04-03T05:31:34.991Z,8.62
2019-04-03T05:32:34.992Z,8.57
2019-04-03T05:33:34.997Z,8.63
2019-04-03T05:34:34.955Z,8.63
2019-04-03T05:35:37.498Z,8.77
2019-04-03T05:36:35.147Z,8.67
2019-04-03T05:37:34.923Z,8.68
2019-04-03T05:38:37.414Z,8.65
2019-04-03T05:39:34.909Z,8.77
2019-04-03T05:40:34.890Z,8.68
2019-04-03T05:41:34.881Z,8.86
2019-04-03T05:42:34.867Z,8.70
2019-04-03T05:43:34.907Z,8.74
2019-04-03T05:44:34.854Z,8.77
2019-04-03T05:45:35.606Z,8.78
2019-04-03T05:46:36.539Z,8.72
2019-04-03T05:47:35.103Z,8.77
2019-04-03T05:48:34.825Z,8.77
2019-04-03T05:49:35.026Z,8.77
2019-04-03T05:50:36.659Z,8.83
2019-04-03T05:51:34.861Z,8.70
2019-04-03T05:52:35.126Z,8.81
2019-04-03T05:53:36.696Z,8.77
2019-04-03T05:54:34.737Z,8.83
2019-04-03T05:55:34.730Z,8.85
2019-04-03T05:56:34.892Z,8.83
2019-04-03T05:57:34.757Z,8.90
2019-04-03T05:58:34.722Z,8.85
2019-04-03T05:59:34.698Z,8.88
2019-04-03T06:00:37.520Z,8.74
2019-04-03T06:01:34.655Z,8.92
2019-04-03T06:02:34.650Z,8.85
2019-04-03T06:03:42.226Z,8.89
2019-04-03T06:04:35.934Z,8.81
2019-04-03T06:05:34.616Z,8.77
2019-04-03T06:06:34.872Z,8.81
2019-04-03T06:07:34.594Z,8.70
2019-04-03T06:08:35.269Z,8.68
2019-04-03T06:09:34.599Z,8.60
2019-04-03T06:10:37.157Z,8.78
2019-04-03T06:11:34.544Z,8.75
2019-04-03T06:12:36.752Z,8.78
2019-04-03T06:13:34.524Z,8.88
2019-04-03T06:14:34.536Z,8.75
2019-04-03T06:15:34.504Z,8.78
2019-04-03T06:16:34.491Z,8.85
2019-04-03T06:17:34.619Z,8.83
2019-04-03T06:18:34.467Z,8.78
2019-04-03T06:19:36.437Z,8.89
2019-04-03T06:20:34.455Z,8.83
2019-04-03T06:21:34.440Z,8.78
2019-04-03T06:22:34.645Z,8.80
2019-04-03T06:23:34.415Z,8.78
2019-04-03T06:24:34.688Z,8.77
2019-04-03T06:25:34.887Z,8.77
2019-04-03T06:26:35.724Z,8.62
2019-04-03T06:27:34.379Z,8.68
2019-04-03T06:28:34.521Z,8.62
2019-04-03T06:29:34.591Z,8.49
2019-04-03T06:30:34.358Z,8.60
2019-04-03T06:31:34.324Z,8.60
2019-04-03T06:32:34.334Z,8.49
2019-04-03T06:33:35.861Z,8.46
2019-04-03T06:34:34.294Z,8.41
2019-04-03T06:35:35.397Z,8.42
2019-04-03T06:36:34.277Z,8.46
2019-04-03T06:37:34.415Z,8.44
2019-04-03T06:38:34.402Z,8.37
2019-04-03T06:39:34.697Z,8.38
2019-04-03T06:40:35.457Z,8.38
2019-04-03T06:41:34.267Z,8.31
2019-04-03T06:42:34.389Z,8.49
2019-04-03T06:43:34.265Z,8.38
2019-04-03T06:44:34.191Z,8.37
2019-04-03T06:45:34.260Z,8.42
2019-04-03T06:46:34.389Z,8.34
2019-04-03T06:47:34.172Z,8.47
2019-04-03T06:48:34.643Z,8.50
2019-04-03T06:49:34.134Z,8.52
2019-04-03T06:50:34.113Z,8.47
2019-04-03T06:51:34.136Z,8.50
2019-04-03T06:52:34.124Z,8.70
2019-04-03T06:53:34.085Z,8.44
2019-04-03T06:54:34.229Z,8.70
2019-04-03T06:55:35.659Z,8.57
2019-04-03T06:56:34.054Z,8.68
2019-04-03T06:57:34.127Z,8.62
2019-04-03T06:58:38.660Z,8.57
2019-04-03T06:59:35.024Z,8.62
2019-04-03T07:00:34.009Z,8.50
2019-04-03T07:01:34.031Z,8.53
2019-04-03T07:02:34.135Z,8.44
2019-04-03T07:05:35.240Z,8.46
2019-04-03T07:06:33.965Z,8.49
2019-04-03T07:07:35.592Z,8.47
2019-04-03T07:08:36.122Z,8.42
2019-04-03T07:09:36.487Z,8.49
2019-04-03T07:10:34.536Z,8.42
2019-04-03T07:11:33.888Z,8.44
2019-04-03T07:12:33.975Z,8.47
2019-04-03T07:13:33.864Z,8.55
2019-04-03T07:14:33.853Z,8.55
2019-04-03T07:15:34.084Z,8.74
2019-04-03T07:16:33.827Z,8.65
2019-04-03T07:17:33.847Z,8.71
2019-04-03T07:18:36.070Z,8.89
2019-04-03T07:19:33.798Z,8.65
2019-04-03T07:20:33.977Z,8.70
2019-04-03T07:21:33.772Z,8.62
2019-04-03T07:22:34.093Z,8.57
2019-04-03T07:23:33.750Z,8.71
2019-04-03T07:24:33.900Z,8.56
2019-04-03T07:25:34.547Z,8.55
2019-04-03T07:26:35.668Z,8.53
2019-04-03T07:27:36.598Z,8.47
2019-04-03T07:28:33.706Z,8.67
2019-04-03T07:29:33.978Z,8.65
2019-04-03T07:30:33.678Z,8.65
2019-04-03T07:31:33.865Z,8.67
2019-04-03T07:32:33.692Z,8.68
2019-04-03T07:33:34.018Z,8.67
2019-04-03T07:34:34.487Z,8.53
2019-04-03T07:35:33.621Z,8.53
2019-04-03T07:36:33.621Z,8.46
2019-04-03T07:37:33.791Z,8.41
2019-04-03T07:38:33.587Z,8.52
2019-04-03T07:39:33.792Z,8.49
2019-04-03T07:40:33.601Z,8.46
2019-04-03T07:41:33.554Z,8.71
2019-04-03T07:42:33.571Z,8.62
2019-04-03T07:43:33.577Z,8.63
2019-04-03T07:44:33.734Z,8.71
2019-04-03T07:45:33.654Z,8.63
2019-04-03T07:46:33.957Z,8.80
2019-04-03T07:47:35.003Z,8.65
2019-04-03T07:48:33.698Z,8.65
2019-04-03T07:49:33.693Z,8.47
2019-04-03T07:50:36.341Z,8.42
2019-04-03T07:51:33.442Z,8.47
2019-04-03T07:52:33.719Z,8.56
2019-04-03T07:53:33.455Z,8.59
2019-04-03T07:54:33.560Z,8.57
2019-04-03T07:55:33.420Z,8.57
2019-04-03T07:56:33.579Z,8.68
2019-04-03T07:57:33.382Z,8.56
2019-04-03T07:58:33.399Z,8.68
2019-04-03T07:59:33.933Z,8.70
2019-04-03T08:00:33.343Z,8.78
2019-04-03T08:01:33.576Z,8.68
2019-04-03T08:02:33.924Z,8.74
2019-04-03T08:03:33.631Z,8.68
2019-04-03T08:04:33.297Z,8.68
2019-04-03T08:05:33.284Z,8.62
2019-04-03T08:06:35.838Z,8.70
2019-04-03T08:07:33.276Z,8.57
2019-04-03T08:08:33.288Z,8.42
2019-04-03T08:09:33.250Z,8.56
2019-04-03T08:10:33.233Z,8.42
2019-04-03T08:11:33.557Z,8.53
2019-04-03T08:12:35.691Z,8.53
2019-04-03T08:13:33.225Z,8.39
2019-04-03T08:14:33.223Z,8.34
2019-04-03T08:15:33.178Z,8.35
2019-04-03T08:16:33.378Z,8.46
2019-04-03T08:17:33.162Z,8.39
2019-04-03T08:18:33.468Z,8.39
2019-04-03T08:19:33.158Z,8.46
2019-04-03T08:20:33.124Z,8.44
2019-04-03T08:21:33.112Z,8.49
2019-04-03T08:22:33.954Z,8.41
2019-04-03T08:23:34.674Z,8.37
2019-04-03T08:24:33.115Z,8.50
2019-04-03T08:25:33.262Z,8.39
2019-04-03T08:26:33.075Z,8.32
2019-04-03T08:27:33.056Z,8.35
2019-04-03T08:28:33.236Z,8.26
2019-04-03T08:29:34.712Z,8.35
2019-04-03T08:30:33.331Z,8.19
2019-04-03T08:31:33.007Z,8.26
2019-04-03T08:32:32.991Z,8.34
2019-04-03T08:33:33.643Z,8.24
2019-04-03T08:34:33.049Z,8.31
2019-04-03T08:35:35.476Z,8.37
2019-04-03T08:36:32.969Z,8.37
2019-04-03T08:37:33.262Z,8.39
2019-04-03T08:38:33.059Z,8.52
2019-04-03T08:39:32.915Z,8.52
2019-04-03T08:40:32.947Z,8.57
2019-04-03T08:41:32.889Z,8.56
2019-04-03T08:42:33.088Z,8.70
2019-04-03T08:43:33.176Z,8.74
2019-04-03T08:44:33.824Z,8.59
2019-04-03T08:45:33.008Z,8.70
2019-04-03T08:46:32.980Z,8.85
2019-04-03T08:47:33.124Z,8.75
2019-04-03T08:48:32.898Z,8.75
2019-04-03T08:49:32.832Z,8.70
2019-04-03T08:50:32.830Z,8.74
2019-04-03T08:52:36.277Z,8.78
2019-04-03T08:53:32.766Z,8.81
2019-04-03T08:54:32.964Z,8.67
2019-04-03T08:55:32.987Z,8.65
2019-04-03T08:56:32.994Z,8.63
2019-04-03T08:57:32.710Z,8.60
2019-04-03T08:58:32.699Z,8.44
2019-04-03T08:59:32.835Z,8.65
2019-04-03T09:00:33.192Z,8.60
2019-04-03T09:01:35.941Z,8.62
2019-04-03T09:02:32.658Z,8.68
2019-04-03T09:03:32.662Z,8.60
2019-04-03T09:04:32.674Z,8.67
2019-04-03T09:05:32.947Z,8.62
2019-04-03T09:06:32.740Z,8.63
2019-04-03T09:07:32.612Z,8.71
2019-04-03T09:08:32.603Z,8.60
2019-04-03T09:09:34.900Z,8.67
2019-04-03T09:10:36.369Z,8.44
2019-04-03T09:11:34.092Z,8.38
2019-04-03T09:12:32.574Z,8.41
2019-04-03T09:13:32.536Z,8.37
2019-04-03T09:14:32.578Z,8.34
2019-04-03T09:15:32.552Z,8.29
2019-04-03T09:16:32.502Z,8.26
2019-04-03T09:17:34.059Z,8.29
2019-04-03T09:18:32.660Z,8.26
2019-04-03T09:19:32.611Z,8.16
2019-04-03T09:20:34.891Z,8.20
2019-04-03T09:21:32.459Z,8.12
2019-04-03T09:22:32.457Z,8.12
2019-04-03T09:23:32.439Z,8.09
2019-04-03T09:24:32.780Z,7.99
2019-04-03T09:25:32.933Z,7.95
2019-04-03T09:26:37.060Z,8.01
2019-04-03T09:27:32.532Z,8.04
2019-04-03T09:28:33.260Z,7.98
2019-04-03T09:29:32.385Z,8.05
2019-04-03T09:30:32.642Z,8.12
2019-04-03T09:31:33.037Z,8.09
2019-04-03T09:32:32.334Z,8.09
2019-04-03T09:33:32.328Z,8.12
2019-04-03T09:34:34.288Z,8.04
2019-04-03T09:35:33.198Z,8.17
2019-04-03T09:36:34.345Z,8.20
2019-04-03T09:37:32.315Z,8.29
2019-04-03T09:38:35.291Z,8.23
2019-04-03T09:39:32.261Z,8.42
2019-04-03T09:40:32.269Z,8.46
2019-04-03T09:41:32.267Z,8.41
2019-04-03T09:42:32.273Z,8.44
2019-04-03T09:43:32.216Z,8.46
2019-04-03T09:44:32.246Z,8.47
2019-04-03T09:45:32.279Z,8.47
2019-04-03T09:46:32.376Z,8.46
2019-04-03T09:48:34.784Z,8.44
2019-04-03T09:49:32.135Z,8.29
2019-04-03T09:50:32.124Z,8.21
2019-04-03T09:51:32.135Z,8.37
2019-04-03T09:52:39.509Z,8.41
2019-04-03T09:53:33.095Z,8.60
2019-04-03T09:54:32.087Z,8.50
2019-04-03T09:55:35.872Z,8.46
2019-04-03T09:56:33.061Z,8.47
2019-04-03T09:57:32.488Z,8.46
2019-04-03T09:58:34.582Z,8.34
2019-04-03T09:59:32.026Z,8.42
2019-04-03T10:00:32.012Z,8.49
2019-04-03T10:01:32.038Z,8.39
2019-04-03T10:02:32.066Z,8.50
2019-04-03T10:03:32.256Z,8.47
2019-04-03T10:04:31.975Z,8.34
2019-04-03T10:05:31.961Z,8.34
2019-04-03T10:06:32.282Z,8.42
2019-04-03T10:07:33.674Z,8.28
2019-04-03T10:08:31.965Z,8.37
2019-04-03T10:09:32.101Z,8.55
2019-04-03T10:10:31.900Z,8.47
2019-04-03T10:11:31.892Z,8.52
2019-04-03T10:12:32.661Z,8.52
2019-04-03T10:13:31.866Z,8.65
2019-04-03T10:14:31.873Z,8.59
2019-04-03T10:15:32.034Z,8.49
2019-04-03T10:16:32.924Z,8.44
2019-04-03T10:18:32.964Z,8.55
2019-04-03T10:19:31.804Z,8.52
2019-04-03T10:20:31.900Z,8.63
2019-04-03T10:21:33.335Z,8.67
2019-04-03T10:22:31.768Z,8.60
2019-04-03T10:23:31.871Z,8.67
2019-04-03T10:24:32.203Z,8.74
2019-04-03T10:25:31.745Z,8.67
2019-04-03T10:26:31.894Z,8.60
2019-04-03T10:27:31.720Z,8.67
2019-04-03T10:28:32.004Z,8.67
2019-04-03T10:29:31.692Z,8.75
2019-04-03T10:30:31.804Z,8.71
2019-04-03T10:31:31.671Z,8.75
2019-04-03T10:32:31.657Z,8.78
2019-04-03T10:33:32.494Z,8.72
2019-04-03T10:34:33.332Z,8.92
2019-04-03T10:35:31.727Z,8.90
2019-04-03T10:36:31.760Z,8.95
2019-04-03T10:37:31.601Z,8.83
2019-04-03T10:38:31.662Z,9.01
2019-04-03T10:39:31.579Z,8.88
2019-04-03T10:40:31.569Z,8.93
2019-04-03T10:41:31.571Z,8.77
2019-04-03T10:42:31.866Z,8.92
2019-04-03T10:43:31.575Z,8.89
2019-04-03T10:44:31.529Z,8.95
2019-04-03T10:45:31.535Z,8.89
2019-04-03T10:46:31.499Z,8.90
2019-04-03T10:47:41.653Z,8.89
2019-04-03T10:48:32.512Z,8.95
2019-04-03T10:49:32.461Z,8.88
2019-04-03T10:50:31.642Z,8.92
2019-04-03T10:51:31.879Z,9.01
2019-04-03T10:52:31.636Z,9.01
2019-04-03T10:53:31.459Z,9.06
2019-04-03T10:54:31.484Z,9.01
2019-04-03T10:55:31.405Z,9.06
2019-04-03T10:56:32.268Z,9.12
2019-04-03T10:57:31.760Z,9.16
2019-04-03T10:58:31.363Z,9.12
2019-04-03T10:59:31.621Z,9.15
2019-04-03T11:00:31.343Z,9.24
2019-04-03T11:01:31.339Z,9.26
2019-04-03T11:02:31.325Z,9.30
2019-04-03T11:03:31.634Z,9.42
2019-04-03T11:04:31.357Z,9.29
2019-04-03T11:05:31.507Z,9.29
2019-04-03T11:06:31.301Z,9.23
2019-04-03T11:07:31.334Z,9.19
2019-04-03T11:08:31.280Z,9.19
2019-04-03T11:09:31.279Z,9.26
2019-04-03T11:10:31.235Z,9.26
2019-04-03T11:11:31.398Z,9.04
2019-04-03T11:12:31.925Z,9.24
2019-04-03T11:13:32.256Z,9.18
2019-04-03T11:14:31.215Z,9.08
2019-04-03T11:15:31.386Z,9.16
2019-04-03T11:16:31.173Z,9.04
2019-04-03T11:17:31.161Z,9.11
2019-04-03T11:18:31.314Z,9.14
2019-04-03T11:19:31.209Z,9.12
2019-04-03T11:20:31.123Z,9.11
2019-04-03T11:21:31.138Z,9.22
2019-04-03T11:22:41.134Z,9.04
2019-04-03T11:23:40.534Z,9.14
2019-04-03T11:24:32.451Z,8.96
2019-04-03T11:25:31.062Z,9.03
2019-04-03T11:26:31.099Z,8.96
2019-04-03T11:27:42.799Z,9.19
2019-04-03T11:28:32.041Z,9.08
2019-04-03T11:29:31.052Z,9.16
2019-04-03T11:30:31.007Z,9.11
2019-04-03T11:31:33.529Z,9.18
2019-04-03T11:32:32.037Z,9.26
2019-04-03T11:33:30.990Z,9.30
2019-04-03T11:34:31.081Z,9.40
2019-04-03T11:35:30.951Z,9.42
2019-04-03T11:36:31.271Z,9.47
2019-04-03T11:37:32.999Z,9.47
2019-04-03T11:38:31.300Z,9.55
2019-04-03T11:39:30.998Z,9.55
2019-04-03T11:40:31.160Z,9.50
2019-04-03T11:41:31.240Z,9.54
2019-04-03T11:42:31.121Z,9.45
2019-04-03T11:43:31.973Z,9.42
2019-04-03T11:44:30.852Z,9.44
2019-04-03T11:45:30.882Z,9.50
2019-04-03T11:46:30.933Z,9.44
2019-04-03T11:47:31.114Z,9.50
2019-04-03T11:48:30.823Z,9.40
2019-04-03T11:49:30.808Z,9.51
2019-04-03T11:50:31.001Z,9.48
2019-04-03T11:51:33.647Z,9.48
2019-04-03T11:52:30.985Z,9.52
2019-04-03T11:53:30.772Z,9.54
2019-04-03T11:54:30.749Z,9.48
2019-04-03T11:55:31.031Z,9.50
2019-04-03T11:56:30.746Z,9.52
2019-04-03T11:57:30.793Z,9.55
2019-04-03T11:58:30.949Z,9.60
2019-04-03T11:59:30.680Z,9.63
2019-04-03T12:00:30.984Z,9.57
2019-04-03T12:01:30.920Z,9.66
2019-04-03T12:02:30.710Z,9.65
2019-04-03T12:03:31.079Z,9.72
2019-04-03T12:04:30.637Z,9.55
2019-04-03T12:05:30.642Z,9.59
2019-04-03T12:06:31.041Z,9.60
2019-04-03T12:07:30.605Z,9.57
2019-04-03T12:08:30.585Z,9.59
2019-04-03T12:09:31.595Z,9.54
2019-04-03T12:10:30.960Z,9.62
2019-04-03T12:11:30.586Z,9.67
2019-04-03T12:12:30.592Z,9.59
2019-04-03T12:13:30.784Z,9.66
2019-04-03T12:14:30.519Z,9.67
2019-04-03T12:15:30.506Z,9.69
2019-04-03T12:16:30.641Z,9.70
2019-04-03T12:17:31.024Z,9.80
2019-04-03T12:18:33.293Z,9.75
2019-04-03T12:19:30.460Z,9.83
2019-04-03T12:20:30.551Z,9.84
2019-04-03T12:21:30.466Z,9.80
2019-04-03T12:22:30.579Z,9.80
2019-04-03T12:23:30.420Z,9.85
2019-04-03T12:24:30.495Z,9.83
2019-04-03T12:25:31.466Z,9.87
2019-04-03T12:26:30.879Z,9.90
2019-04-03T12:27:30.372Z,9.88
2019-04-03T12:28:30.605Z,9.94
2019-04-03T12:29:30.364Z,9.91
2019-04-03T12:30:30.433Z,9.99
2019-04-03T12:31:30.355Z,10.02
2019-04-03T12:32:37.476Z,10.09
2019-04-03T12:33:31.309Z,10.17
2019-04-03T12:34:30.533Z,10.12
2019-04-03T12:35:30.283Z,10.34
2019-04-03T12:36:30.313Z,10.23
2019-04-03T12:37:30.446Z,10.30
2019-04-03T12:38:30.254Z,10.24
2019-04-03T12:39:30.234Z,10.43
2019-04-03T12:40:32.361Z,10.52
2019-04-03T12:41:30.257Z,10.45
2019-04-03T12:42:30.233Z,10.54
2019-04-03T12:43:30.604Z,10.67
2019-04-03T12:44:30.185Z,10.70
2019-04-03T12:45:30.316Z,10.68
2019-04-03T12:46:32.721Z,10.72
2019-04-03T12:47:30.384Z,10.62
2019-04-03T12:48:30.134Z,10.62
2019-04-03T12:49:30.135Z,10.49
2019-04-03T12:50:30.114Z,10.43
2019-04-03T12:51:31.536Z,10.41
2019-04-03T12:52:30.124Z,10.31
2019-04-03T12:53:30.283Z,10.21
2019-04-03T12:54:30.233Z,10.27
2019-04-03T12:55:30.279Z,10.39
2019-04-03T12:56:30.956Z,10.34
2019-04-03T12:57:32.135Z,10.31
2019-04-03T12:58:30.109Z,10.26
2019-04-03T12:59:30.304Z,10.24
2019-04-03T13:00:30.429Z,10.34
2019-04-03T13:01:30.002Z,10.28
2019-04-03T13:02:30.111Z,10.34
2019-04-03T13:03:29.967Z,10.20
2019-04-03T13:04:32.158Z,10.34
2019-04-03T13:05:29.945Z,10.21
2019-04-03T13:06:30.270Z,10.09
2019-04-03T13:07:29.951Z,10.23
2019-04-03T13:08:29.956Z,10.26
2019-04-03T13:09:29.917Z,10.23
2019-04-03T13:10:40.266Z,10.09
2019-04-03T13:11:33.031Z,10.18
2019-04-03T13:12:30.230Z,10.12
2019-04-03T13:13:30.354Z,10.09
2019-04-03T13:14:31.474Z,10.02
2019-04-03T13:15:29.829Z,10.09
2019-04-03T13:16:29.829Z,10.06
2019-04-03T13:17:30.090Z,10.10
2019-04-03T13:18:29.999Z,10.03